createdAt,value
2019-03-25T00:02:21.683Z,11.30
2019-03-25T00:04:50.105Z,11.40
2019-03-25T00:07:18.480Z,11.40
2019-03-25T00:09:46.883Z,11.30
2019-03-25T00:12:15.263Z,11.30
2019-03-25T00:14:43.660Z,11.30
2019-03-25T00:17:12.035Z,11.30
2019-03-25T00:19:40.506Z,11.30
2019-03-25T00:22:08.886Z,11.30
2019-03-25T00:24:38.899Z,11.20
2019-03-25T00:27:07.296Z,11.20
2019-03-25T00:29:35.727Z,11.10
2019-03-25T00:32:04.095Z,11.20
2019-03-25T00:34:32.432Z,11.10
2019-03-25T00:37:00.806Z,11.10
2019-03-25T00:39:29.224Z,11.10
2019-03-25T00:41:58.884Z,11.00
2019-03-25T00:44:27.282Z,11.00
2019-03-25T00:46:55.658Z,11.00
2019-03-25T00:49:24.099Z,10.90
2019-03-25T00:51:52.479Z,10.90
2019-03-25T00:54:20.893Z,10.80
2019-03-25T00:56:49.273Z,10.80
2019-03-25T00:59:17.659Z,10.80
2019-03-25T01:01:46.070Z,10.80
2019-03-25T01:04:14.454Z,10.90
2019-03-25T01:06:42.847Z,10.80
2019-03-25T01:09:11.226Z,10.70
2019-03-25T01:11:48.681Z,10.70
2019-03-25T01:14:09.643Z,10.70
2019-03-25T01:16:38.045Z,10.60
2019-03-25T01:19:06.426Z,10.60
2019-03-25T01:21:34.836Z,10.50
2019-03-25T01:24:03.211Z,10.50
2019-03-25T01:26:31.612Z,10.40
2019-03-25T01:28:59.992Z,10.30
2019-03-25T01:31:28.389Z,10.20
2019-03-25T01:33:56.780Z,10.20
2019-03-25T01:36:25.177Z,10.10
2019-03-25T01:38:53.556Z,10.10
2019-03-25T01:41:21.951Z,10.00
2019-03-25T01:43:50.333Z,10.00
2019-03-25T01:46:18.730Z,10.00
2019-03-25T01:48:47.107Z,10.00
2019-03-25T01:51:34.941Z,10.00
2019-03-25T01:54:03.326Z,9.90
2019-03-25T01:56:31.732Z,9.90
2019-03-25T01:59:00.115Z,9.90
2019-03-25T02:01:28.496Z,9.90
2019-03-25T02:03:56.874Z,9.90
2019-03-25T02:06:25.274Z,9.80
2019-03-25T02:08:53.645Z,9.80
2019-03-25T02:11:22.412Z,9.80
2019-03-25T02:13:50.849Z,9.90
2019-03-25T02:16:19.255Z,9.90
2019-03-25T02:18:47.631Z,9.90
2019-03-25T02:21:17.656Z,9.80
2019-03-25T02:23:46.077Z,9.90
2019-03-25T02:26:14.483Z,9.80
2019-03-25T02:28:42.851Z,9.80
2019-03-25T02:31:11.261Z,9.80
2019-03-25T02:33:39.651Z,9.80
2019-03-25T02:36:08.053Z,9.70
2019-03-25T02:38:36.428Z,9.70
2019-03-25T02:41:04.834Z,9.70
2019-03-25T02:43:33.233Z,9.80
2019-03-25T02:46:01.609Z,9.80
2019-03-25T02:48:29.991Z,9.90
2019-03-25T02:50:58.390Z,9.90
2019-03-25T02:53:26.807Z,9.90
2019-03-25T02:55:55.238Z,10.00
2019-03-25T02:58:23.609Z,9.90
2019-03-25T03:00:51.980Z,9.80
2019-03-25T03:03:20.441Z,9.80
2019-03-25T03:05:48.792Z,9.70
2019-03-25T03:08:17.200Z,9.80
2019-03-25T03:10:45.578Z,9.80
2019-03-25T03:13:13.985Z,9.80
2019-03-25T03:15:42.369Z,9.70
2019-03-25T03:18:10.764Z,9.70
2019-03-25T03:20:39.157Z,9.60
2019-03-25T03:23:07.541Z,9.50
2019-03-25T03:25:35.933Z,9.50
2019-03-25T03:28:04.362Z,9.50
2019-03-25T03:30:32.721Z,9.60
2019-03-25T03:33:01.204Z,9.40
2019-03-25T03:35:29.621Z,9.40
2019-03-25T03:37:57.983Z,9.40
2019-03-25T03:40:26.353Z,9.40
2019-03-25T03:42:54.746Z,9.40
2019-03-25T03:45:23.114Z,9.20
2019-03-25T03:47:51.520Z,9.30
2019-03-25T03:50:24.463Z,9.30
2019-03-25T03:52:52.930Z,9.30
2019-03-25T03:55:22.568Z,9.30
2019-03-25T03:57:50.995Z,9.10
2019-03-25T04:00:33.307Z,9.20
2019-03-25T04:03:01.734Z,9.10
2019-03-25T04:05:30.094Z,9.00
2019-03-25T04:07:58.504Z,9.00
2019-03-25T04:10:26.949Z,9.00
2019-03-25T04:12:55.388Z,8.90
2019-03-25T04:15:28.835Z,8.90
2019-03-25T04:17:57.903Z,8.80
2019-03-25T04:20:26.285Z,8.80
2019-03-25T04:22:54.706Z,8.70
2019-03-25T04:25:23.066Z,8.60
2019-03-25T04:27:51.394Z,8.60
2019-03-25T04:30:19.776Z,8.50
2019-03-25T04:32:48.186Z,8.50
2019-03-25T04:35:16.577Z,8.40
2019-03-25T04:37:44.981Z,8.30
2019-03-25T04:40:13.357Z,8.20
2019-03-25T04:42:41.761Z,8.30
2019-03-25T04:45:10.141Z,8.30
2019-03-25T04:47:38.535Z,8.30
2019-03-25T04:50:06.926Z,8.30
2019-03-25T04:52:35.332Z,8.10
2019-03-25T04:55:04.163Z,8.10
2019-03-25T04:57:32.605Z,8.00
2019-03-25T05:00:00.994Z,7.80
2019-03-25T05:02:29.409Z,7.90
2019-03-25T05:04:57.789Z,7.80
2019-03-25T05:07:26.175Z,7.60
2019-03-25T05:09:54.543Z,7.60
2019-03-25T05:12:22.934Z,7.60
2019-03-25T05:14:51.304Z,7.50
2019-03-25T05:17:19.695Z,7.40
2019-03-25T05:19:48.072Z,7.40
2019-03-25T05:22:16.454Z,7.40
2019-03-25T05:24:44.832Z,7.40
2019-03-25T05:27:13.228Z,7.30
2019-03-25T05:29:41.590Z,7.10
2019-03-25T05:32:09.967Z,7.00
2019-03-25T05:34:38.367Z,7.00
2019-03-25T05:37:06.730Z,6.90
2019-03-25T05:39:35.057Z,6.90
2019-03-25T05:42:03.842Z,7.00
2019-03-25T05:44:32.216Z,6.90
2019-03-25T05:47:00.582Z,7.00
2019-03-25T05:49:28.970Z,7.00
2019-03-25T05:51:57.429Z,7.00
2019-03-25T05:54:25.845Z,7.10
2019-03-25T05:57:02.532Z,7.00
2019-03-25T05:59:24.269Z,6.80
2019-03-25T06:01:52.752Z,6.80
2019-03-25T06:04:21.172Z,6.70
2019-03-25T06:06:51.991Z,6.40
2019-03-25T06:09:19.596Z,6.50
2019-03-25T06:11:47.976Z,6.60
2019-03-25T06:14:16.384Z,6.60
2019-03-25T06:16:44.763Z,6.60
2019-03-25T06:19:13.150Z,6.70
2019-03-25T06:21:41.513Z,6.80
2019-03-25T06:24:09.913Z,7.00
2019-03-25T06:26:38.282Z,7.20
2019-03-25T06:29:07.050Z,7.40
2019-03-25T06:31:35.395Z,7.50
2019-03-25T06:34:03.821Z,7.70
2019-03-25T06:36:32.189Z,8.00
2019-03-25T06:39:00.578Z,8.80
2019-03-25T06:41:28.959Z,9.80
2019-03-25T06:43:57.346Z,10.80
2019-03-25T06:46:25.727Z,12.00
2019-03-25T06:48:54.136Z,12.50
2019-03-25T06:51:22.503Z,13.00
2019-03-25T06:53:50.825Z,12.80
2019-03-25T06:56:19.200Z,12.20
2019-03-25T06:58:47.599Z,12.10
2019-03-25T07:01:15.991Z,12.70
2019-03-25T07:03:44.362Z,12.80
2019-03-25T07:06:12.783Z,12.60
2019-03-25T07:08:41.154Z,12.90
2019-03-25T07:11:09.565Z,12.70
2019-03-25T07:13:37.936Z,12.50
2019-03-25T07:16:06.340Z,12.00
2019-03-25T07:18:34.714Z,11.60
2019-03-25T07:21:03.125Z,11.20
2019-03-25T07:23:31.530Z,10.90
2019-03-25T07:25:59.926Z,10.60
2019-03-25T07:28:28.325Z,10.30
2019-03-25T07:30:56.804Z,10.20
2019-03-25T07:33:25.167Z,10.10
2019-03-25T07:35:53.592Z,10.00
2019-03-25T07:38:21.979Z,10.10
2019-03-25T07:40:50.389Z,10.40
2019-03-25T07:43:18.762Z,10.60
2019-03-25T07:45:47.169Z,10.80
2019-03-25T07:48:15.558Z,10.70
2019-03-25T07:50:43.966Z,10.70
2019-03-25T07:53:12.343Z,10.80
2019-03-25T07:55:40.734Z,10.80
2019-03-25T07:58:09.110Z,10.90
2019-03-25T08:00:37.456Z,11.10
2019-03-25T08:03:05.833Z,11.30
2019-03-25T08:05:34.237Z,11.30
2019-03-25T08:08:02.616Z,11.20
2019-03-25T08:10:35.302Z,11.10
2019-03-25T08:13:03.786Z,11.10
2019-03-25T08:15:32.311Z,11.10
2019-03-25T08:18:00.847Z,11.00
2019-03-25T08:20:29.241Z,10.90
2019-03-25T08:22:57.632Z,10.70
2019-03-25T08:25:26.048Z,10.50
2019-03-25T08:27:59.796Z,10.40
2019-03-25T08:30:24.480Z,10.30
2019-03-25T08:32:52.850Z,10.30
2019-03-25T08:35:21.175Z,10.30
2019-03-25T08:37:49.551Z,10.30
2019-03-25T08:40:17.930Z,10.30
2019-03-25T08:42:46.331Z,10.20
2019-03-25T08:45:14.703Z,10.10
2019-03-25T08:47:43.100Z,10.10
2019-03-25T08:50:11.473Z,10.00
2019-03-25T08:52:39.951Z,9.90
2019-03-25T08:55:08.729Z,9.90
2019-03-25T08:57:37.133Z,9.90
2019-03-25T09:00:07.839Z,9.90
2019-03-25T09:02:36.240Z,10.00
2019-03-25T09:05:24.399Z,10.00
2019-03-25T09:07:52.881Z,10.20
2019-03-25T09:10:21.312Z,10.30
2019-03-25T09:12:49.737Z,10.60
2019-03-25T09:15:18.211Z,10.80
2019-03-25T09:17:46.734Z,10.90
2019-03-25T09:20:15.734Z,10.80
2019-03-25T09:22:44.228Z,10.80
2019-03-25T09:25:12.658Z,10.80
2019-03-25T09:27:41.098Z,11.00
2019-03-25T09:30:11.756Z,11.30
2019-03-25T09:32:40.215Z,11.30
2019-03-25T09:35:08.724Z,11.20
2019-03-25T09:37:39.398Z,11.10
2019-03-25T09:40:08.396Z,11.10
2019-03-25T09:42:36.926Z,10.90
2019-03-25T09:45:07.974Z,10.80
2019-03-25T09:47:37.839Z,10.70
2019-03-25T09:50:07.921Z,10.60
2019-03-25T09:52:38.705Z,10.50
2019-03-25T09:55:07.541Z,10.40
2019-03-25T09:57:35.958Z,10.40
2019-03-25T10:00:07.811Z,10.40
2019-03-25T10:02:36.255Z,10.40
2019-03-25T10:05:05.426Z,10.40
2019-03-25T10:07:33.898Z,10.40
2019-03-25T10:10:02.321Z,10.50
2019-03-25T10:12:30.743Z,10.50
2019-03-25T10:14:59.252Z,10.70
2019-03-25T10:17:27.727Z,11.20
2019-03-25T10:19:56.147Z,11.70
2019-03-25T10:22:24.779Z,12.00
2019-03-25T10:24:53.206Z,12.40
2019-03-25T10:27:21.688Z,12.60
2019-03-25T10:29:50.130Z,12.70
2019-03-25T10:32:18.563Z,12.80
2019-03-25T10:34:47.877Z,12.80
2019-03-25T10:37:16.347Z,12.60
2019-03-25T10:39:44.752Z,12.40
2019-03-25T10:42:13.376Z,12.20
2019-03-25T10:44:41.833Z,12.10
2019-03-25T10:47:11.019Z,12.00
2019-03-25T10:49:39.470Z,11.80
2019-03-25T11:18:30.997Z,11.30
2019-03-25T11:20:59.422Z,10.90
2019-03-25T11:23:27.880Z,10.60
2019-03-25T11:25:56.372Z,10.60
2019-03-25T11:28:24.798Z,10.80
2019-03-25T11:30:55.065Z,11.00
2019-03-25T11:33:23.793Z,11.00
2019-03-25T11:36:02.715Z,10.70
2019-03-25T11:38:30.833Z,10.40
2019-03-25T11:40:59.249Z,10.30
2019-03-25T11:43:27.697Z,10.50
2019-03-25T11:45:56.116Z,11.40
2019-03-25T11:49:13.322Z,12.20
2019-03-25T11:51:41.727Z,12.90
2019-03-25T11:54:10.157Z,13.30
2019-03-25T11:56:38.562Z,13.40
2019-03-25T11:59:06.970Z,13.50
2019-03-25T12:01:35.391Z,13.60
2019-03-25T12:04:03.898Z,13.60
2019-03-25T12:06:32.364Z,13.70
2019-03-25T12:09:00.780Z,13.80
2019-03-25T12:11:29.181Z,13.70
2019-03-25T12:13:57.666Z,13.50
2019-03-25T12:16:26.061Z,13.50
2019-03-25T12:19:04.734Z,13.60
2019-03-25T12:43:12.736Z,13.50
2019-03-25T12:45:43.116Z,13.60
2019-03-25T12:48:11.252Z,13.60
2019-03-25T12:50:39.833Z,13.50
2019-03-25T12:53:08.395Z,13.30
2019-03-25T12:55:36.944Z,13.20
2019-03-25T12:58:08.116Z,13.00
2019-03-25T13:01:21.965Z,12.70
2019-03-25T13:04:01.163Z,12.10
2019-03-25T13:06:58.154Z,11.70
2019-03-25T13:09:27.635Z,11.70
2019-03-25T13:12:02.668Z,11.90
2019-03-25T13:14:37.198Z,12.00
2019-03-25T13:20:02.499Z,12.20
2019-03-25T13:22:30.928Z,12.20
2019-03-25T13:24:59.633Z,12.30
2019-03-25T13:27:28.031Z,12.70
2019-03-25T13:29:56.413Z,13.00
2019-03-25T13:56:30.210Z,12.90
2019-03-25T13:59:06.396Z,12.70
2019-03-25T14:01:34.792Z,12.60
2019-03-25T14:04:03.171Z,12.40
2019-03-25T14:06:31.580Z,12.20
2019-03-25T14:08:59.950Z,11.90
2019-03-25T14:11:28.354Z,11.60
2019-03-25T14:13:56.740Z,11.00
2019-03-25T14:16:25.169Z,10.20
2019-03-25T14:18:53.534Z,9.60
2019-03-25T14:21:21.969Z,9.10
2019-03-25T14:24:04.192Z,8.60
2019-03-25T14:26:37.531Z,8.20
2019-03-25T14:29:17.768Z,7.80
2019-03-25T14:31:57.148Z,7.70
2019-03-25T14:34:25.624Z,7.80
2019-03-25T14:36:54.550Z,8.00
2019-03-25T14:39:23.488Z,8.40
2019-03-25T14:41:52.448Z,8.70
2019-03-25T14:44:20.779Z,9.20
2019-03-25T14:46:49.208Z,9.50
2019-03-25T14:49:17.637Z,9.80
2019-03-25T14:51:46.034Z,9.80
2019-03-25T14:54:14.416Z,9.80
2019-03-25T14:56:42.786Z,9.80
2019-03-25T14:59:11.195Z,9.80
2019-03-25T15:01:56.741Z,9.80
2019-03-25T15:04:27.869Z,9.70
2019-03-25T15:07:04.016Z,9.70
2019-03-25T15:09:32.501Z,9.90
2019-03-25T15:12:01.044Z,10.00
2019-03-25T15:14:29.427Z,10.10
2019-03-25T15:16:57.798Z,10.30
2019-03-25T15:19:26.191Z,10.50
2019-03-25T15:21:54.676Z,10.60
2019-03-25T15:24:23.071Z,10.70
2019-03-25T15:26:53.929Z,10.80
2019-03-25T15:29:23.439Z,10.90
2019-03-25T15:34:45.780Z,10.70
2019-03-25T15:37:20.535Z,10.60
2019-03-25T15:39:52.231Z,10.50
2019-03-25T15:42:26.789Z,10.40
2019-03-25T15:44:57.755Z,10.50
2019-03-25T15:47:28.426Z,10.60
2019-03-25T15:49:59.881Z,10.60
2019-03-25T15:52:29.213Z,10.70
2019-03-25T15:54:58.190Z,10.60
2019-03-25T15:57:26.625Z,10.50
2019-03-25T15:59:55.736Z,10.50
2019-03-25T16:02:27.851Z,10.30
2019-03-25T16:04:59.070Z,10.10
2019-03-25T16:07:31.880Z,9.70
2019-03-25T16:10:01.328Z,9.20
2019-03-25T16:12:34.769Z,8.90
2019-03-25T16:15:04.552Z,8.80
2019-03-25T16:17:35.036Z,8.70
2019-03-25T16:20:09.954Z,8.60
2019-03-25T16:22:46.456Z,8.60
2019-03-25T16:25:20.023Z,8.50
2019-03-25T16:27:51.281Z,8.10
2019-03-25T16:30:39.149Z,7.80
2019-03-25T16:33:09.212Z,7.40
2019-03-25T16:35:46.031Z,7.00
2019-03-25T16:38:16.610Z,6.80
2019-03-25T16:40:46.074Z,6.60
2019-03-25T16:43:15.448Z,6.70
2019-03-25T16:45:45.740Z,6.80
2019-03-25T16:48:19.651Z,6.90
2019-03-25T16:50:52.131Z,7.00
2019-03-25T17:02:23.546Z,7.50
2019-03-25T17:04:57.791Z,7.50
2019-03-25T17:07:29.072Z,7.60
2019-03-25T17:10:00.898Z,7.60
2019-03-25T17:12:33.518Z,7.50
2019-03-25T17:15:11.151Z,7.40
2019-03-25T17:17:45.684Z,7.40
2019-03-25T17:20:19.956Z,7.40
2019-03-25T17:25:52.901Z,7.30
2019-03-25T17:28:18.029Z,7.40
2019-03-25T17:30:49.667Z,7.30
2019-03-25T17:36:11.318Z,7.00
2019-03-25T17:38:53.488Z,6.90
2019-03-25T17:41:24.744Z,6.70
2019-03-25T17:44:03.568Z,6.50
2019-03-25T17:46:34.961Z,6.40
2019-03-25T17:49:06.811Z,6.50
2019-03-25T17:51:36.290Z,6.40
2019-03-25T17:54:05.185Z,6.30
2019-03-25T17:56:34.406Z,6.30
2019-03-25T17:59:04.687Z,6.40
2019-03-25T18:01:35.044Z,6.30
2019-03-25T18:04:05.186Z,6.20
2019-03-25T18:09:37.911Z,6.30
2019-03-25T18:12:10.298Z,6.20
2019-03-25T18:14:39.513Z,6.20
2019-03-25T18:17:08.427Z,6.20
2019-03-25T18:19:37.348Z,6.10
2019-03-25T18:22:06.598Z,6.00
2019-03-25T18:24:35.790Z,6.10
2019-03-25T18:27:05.228Z,6.00
2019-03-25T18:29:35.772Z,5.90
2019-03-25T18:32:04.476Z,5.90
2019-03-25T18:34:34.885Z,5.80
2019-03-25T18:37:06.067Z,5.80
2019-03-25T18:39:35.091Z,5.80
2019-03-25T18:42:04.118Z,5.90
2019-03-25T18:44:33.306Z,5.80
2019-03-25T18:47:02.676Z,5.80
2019-03-25T18:49:31.916Z,5.70
2019-03-25T18:52:01.116Z,6.00
2019-03-25T18:54:33.368Z,5.90
2019-03-25T18:57:04.909Z,5.90
2019-03-25T18:59:33.678Z,6.00
2019-03-25T19:02:02.449Z,6.00
2019-03-25T19:04:31.096Z,6.00
2019-03-25T19:07:00.153Z,5.90
2019-03-25T19:09:31.731Z,6.00
2019-03-25T19:12:00.756Z,6.00
2019-03-25T19:14:29.347Z,5.90
2019-03-25T19:17:21.302Z,5.90
2019-03-25T19:19:50.913Z,6.00
2019-03-25T19:22:19.270Z,6.10
2019-03-25T19:24:47.675Z,6.30
2019-03-25T19:27:17.539Z,6.20
2019-03-25T19:29:46.186Z,6.20
2019-03-25T19:32:14.549Z,6.10
2019-03-25T19:34:42.964Z,6.20
2019-03-25T19:37:11.445Z,6.20
2019-03-25T19:39:39.930Z,6.20
2019-03-25T19:42:08.320Z,6.30
2019-03-25T19:44:36.760Z,6.30
2019-03-25T19:47:05.167Z,6.30
2019-03-25T19:49:33.531Z,6.50
2019-03-25T19:52:01.942Z,6.60
2019-03-25T19:54:31.443Z,6.50
2019-03-25T19:56:59.905Z,6.60
2019-03-25T19:59:28.335Z,6.70
2019-03-25T20:01:56.738Z,6.70
2019-03-25T20:04:25.636Z,6.70
2019-03-25T20:06:54.033Z,6.80
2019-03-25T20:09:22.370Z,6.70
2019-03-25T20:11:50.818Z,6.80
2019-03-25T20:14:19.174Z,6.80
2019-03-25T20:16:47.603Z,6.70
2019-03-25T20:19:15.999Z,6.80
2019-03-25T20:21:44.444Z,6.80
2019-03-25T20:24:12.831Z,6.80
2019-03-25T20:26:41.303Z,6.80
2019-03-25T20:29:09.647Z,6.70
2019-03-25T20:31:38.031Z,6.80
2019-03-25T20:34:11.201Z,6.70
2019-03-25T20:36:36.474Z,6.80
2019-03-25T20:39:07.430Z,6.90
2019-03-25T20:41:35.904Z,6.90
2019-03-25T20:44:04.423Z,6.80
2019-03-25T20:46:32.814Z,6.80
2019-03-25T20:49:01.148Z,6.80
2019-03-25T20:51:29.609Z,6.80
2019-03-25T20:53:58.014Z,6.80
2019-03-25T20:56:26.395Z,6.80
2019-03-25T20:58:54.784Z,6.80
2019-03-25T21:01:23.246Z,6.60
2019-03-25T21:03:51.563Z,6.80
2019-03-25T21:06:20.113Z,6.70
2019-03-25T21:08:48.553Z,6.70
2019-03-25T21:11:17.094Z,6.70
2019-03-25T21:13:45.497Z,6.60
2019-03-25T21:16:13.980Z,6.70
2019-03-25T21:18:42.449Z,6.70
2019-03-25T21:21:10.829Z,6.70
2019-03-25T21:23:39.215Z,6.80
2019-03-25T21:26:07.671Z,6.80
2019-03-25T21:28:37.153Z,6.70
2019-03-25T21:31:05.531Z,6.60
2019-03-25T21:33:33.904Z,6.60
2019-03-25T21:36:02.330Z,6.70
2019-03-25T21:38:30.703Z,6.60
2019-03-25T21:40:59.177Z,6.70
2019-03-25T21:43:27.574Z,6.70
2019-03-25T21:45:55.946Z,6.80
2019-03-25T21:48:24.321Z,6.70
2019-03-25T21:50:52.794Z,6.70
2019-03-25T21:53:21.362Z,6.70
2019-03-25T21:55:49.773Z,6.70
2019-03-25T21:58:19.778Z,6.60
2019-03-25T22:00:48.220Z,6.60
2019-03-25T22:03:16.598Z,6.60
2019-03-25T22:05:44.966Z,6.60
2019-03-25T22:08:13.351Z,6.50
2019-03-25T22:10:43.120Z,6.40
2019-03-25T22:13:11.935Z,6.40
2019-03-25T22:15:40.294Z,6.30
2019-03-25T22:18:08.699Z,6.40
2019-03-25T22:20:37.159Z,6.40
2019-03-25T22:23:06.018Z,6.40
2019-03-25T22:25:34.356Z,6.50
2019-03-25T22:28:03.144Z,6.40
2019-03-25T22:30:31.489Z,6.40
2019-03-25T22:32:59.879Z,6.40
2019-03-25T22:35:28.271Z,6.20
2019-03-25T22:37:56.684Z,6.30
2019-03-25T22:40:25.050Z,6.30
2019-03-25T22:42:53.438Z,6.30
2019-03-25T22:45:29.404Z,6.30
2019-03-25T22:47:57.812Z,6.20
2019-03-25T22:50:28.033Z,6.20
2019-03-25T22:52:56.972Z,6.10
2019-03-25T22:55:25.508Z,6.00
2019-03-25T22:57:53.882Z,6.00
2019-03-25T23:00:24.321Z,6.10
2019-03-25T23:02:53.066Z,6.10
2019-03-25T23:05:21.455Z,6.10
2019-03-25T23:07:49.828Z,6.10
2019-03-25T23:10:18.283Z,6.00
2019-03-25T23:12:46.659Z,5.90
2019-03-25T23:15:15.056Z,5.90
2019-03-25T23:17:43.424Z,6.00
2019-03-25T23:20:11.850Z,6.00
2019-03-25T23:22:40.188Z,5.90
2019-03-25T23:25:08.597Z,5.90
2019-03-25T23:27:36.972Z,6.00
2019-03-25T23:30:05.773Z,5.90
2019-03-25T23:32:34.129Z,5.90
2019-03-25T23:35:02.542Z,5.90
2019-03-25T23:37:30.937Z,6.10
2019-03-25T23:39:59.342Z,6.10
2019-03-25T23:42:27.718Z,6.20
2019-03-25T23:44:56.105Z,6.20
2019-03-25T23:47:24.475Z,6.20
2019-03-25T23:49:52.874Z,6.20
2019-03-25T23:52:21.313Z,6.20
2019-03-25T23:54:49.752Z,6.20
2019-03-25T23:57:18.113Z,6.20
2019-03-25T23:59:46.514Z,6.20
